Time;durP1;ratioP1;P1;durP2;ratioP2;P2;SDS_P1;SDS_P2;PMS_P1;PMS_P2;Temp;Humidity;BMP_temperature;BMP_pressure;BME280_temperature;BME280_humidity;BME280_pressure;Samples;Min_cycle;Max_cycle;Signal;HPM_P1;HPM_P2
2024/02/12 00:00:19;;;;;;;21.50;7.60;;;7.30;99.90;;;;;;4191240;28;20202;-75
2024/02/12 00:02:21;;;;;;;21.37;7.97;;;7.20;99.90;;;;;;4187273;28;20310;-76
2024/02/12 00:04:24;;;;;;;21.73;7.40;;;7.20;99.90;;;;;;4180526;28;20672;-76
2024/02/12 00:06:26;;;;;;;19.60;7.03;;;7.30;99.90;;;;;;4182043;28;20207;-75
2024/02/12 00:08:28;;;;;;;15.77;6.93;;;7.30;99.90;;;;;;4186562;28;20591;-75
2024/02/12 00:10:29;;;;;;;17.53;7.13;;;7.20;99.90;;;;;;4189257;28;20305;-75
2024/02/12 00:12:31;;;;;;;13.30;6.63;;;7.20;99.90;;;;;;4182662;28;20213;-76
2024/02/12 00:14:32;;;;;;;18.00;7.13;;;7.20;99.90;;;;;;4190456;28;20206;-73
2024/02/12 00:16:37;;;;;;;15.00;7.07;;;7.20;99.90;;;;;;4187091;28;20263;-76
2024/02/12 00:18:39;;;;;;;17.50;6.80;;;7.20;99.90;;;;;;4201232;28;20720;-75
2024/02/12 00:20:41;;;;;;;18.43;7.20;;;7.20;99.90;;;;;;4187044;28;20210;-75
2024/02/12 00:22:43;;;;;;;29.27;7.37;;;7.20;99.90;;;;;;4183442;28;20204;-75
2024/02/12 00:24:44;;;;;;;13.60;6.37;;;7.20;99.90;;;;;;4186962;28;20226;-75
2024/02/12 00:26:46;;;;;;;16.70;6.27;;;7.20;99.90;;;;;;4187519;28;20205;-75
2024/02/12 00:28:48;;;;;;;17.37;6.27;;;7.20;99.90;;;;;;4186649;28;20233;-76
2024/02/12 00:30:49;;;;;;;19.07;6.57;;;7.20;99.90;;;;;;4187386;28;20235;-75
2024/02/12 00:32:54;;;;;;;18.43;7.13;;;7.20;99.90;;;;;;4191048;28;20201;-76
2024/02/12 00:34:57;;;;;;;17.40;6.77;;;7.20;99.90;;;;;;4190629;28;20202;-75
2024/02/12 00:36:59;;;;;;;22.53;7.53;;;7.10;99.90;;;;;;4182570;28;20241;-75
2024/02/12 00:39:04;;;;;;;13.17;6.20;;;7.10;99.90;;;;;;4179162;28;20222;-75
2024/02/12 00:41:05;;;;;;;18.70;7.23;;;7.10;99.90;;;;;;4182645;28;20223;-75
2024/02/12 00:43:11;;;;;;;19.67;6.90;;;7.10;99.90;;;;;;4183582;28;20198;-76
2024/02/12 00:45:14;;;;;;;14.70;6.60;;;7.10;99.90;;;;;;4186325;28;20794;-76
2024/02/12 00:47:15;;;;;;;16.80;7.23;;;7.10;99.90;;;;;;4186336;28;20281;-76
2024/02/12 00:49:18;;;;;;;19.23;7.37;;;7.10;99.90;;;;;;4186605;28;20439;-75
2024/02/12 00:51:21;;;;;;;17.87;7.07;;;7.10;99.90;;;;;;4186651;28;20310;-76
2024/02/12 00:53:24;;;;;;;14.33;6.60;;;7.10;99.90;;;;;;4186412;28;20584;-76
2024/02/12 00:55:25;;;;;;;18.43;6.57;;;7.10;99.90;;;;;;4186348;28;20202;-75
2024/02/12 00:57:28;;;;;;;15.73;6.90;;;7.10;99.90;;;;;;4185824;28;20237;-76
2024/02/12 00:59:30;;;;;;;13.90;6.57;;;7.10;99.90;;;;;;4188133;28;20716;-76
2024/02/12 01:01:33;;;;;;;15.63;6.43;;;7.10;99.90;;;;;;4184949;28;20627;-75
2024/02/12 01:03:38;;;;;;;17.13;6.87;;;7.10;99.90;;;;;;4188920;28;20226;-76
2024/02/12 01:05:42;;;;;;;15.57;6.27;;;7.10;99.90;;;;;;4185451;28;20213;-75
2024/02/12 01:07:43;;;;;;;21.27;6.80;;;7.10;99.90;;;;;;4200117;28;20240;-76
2024/02/12 01:09:45;;;;;;;12.53;6.17;;;7.10;99.90;;;;;;4180744;28;20234;-76
2024/02/12 01:11:48;;;;;;;19.13;6.23;;;7.10;99.90;;;;;;4186444;28;20267;-76
2024/02/12 01:13:50;;;;;;;14.03;6.37;;;7.10;99.90;;;;;;4183611;28;20589;-75
2024/02/12 01:15:55;;;;;;;15.83;6.20;;;7.10;99.90;;;;;;4182622;28;20260;-75
2024/02/12 01:17:57;;;;;;;15.30;6.80;;;7.10;99.90;;;;;;4178735;28;20652;-76
2024/02/12 01:19:58;;;;;;;16.03;6.07;;;7.10;99.90;;;;;;4187427;28;20218;-76
2024/02/12 01:22:03;;;;;;;19.77;6.47;;;7.10;99.90;;;;;;4188516;28;20223;-75
2024/02/12 01:24:06;;;;;;;14.40;6.17;;;6.80;99.90;;;;;;4185353;28;20200;-76
2024/02/12 01:26:09;;;;;;;12.40;6.07;;;7.00;99.90;;;;;;4187861;28;20211;-76
2024/02/12 01:28:11;;;;;;;12.77;6.10;;;7.00;99.90;;;;;;4186710;28;20201;-76
2024/02/12 01:30:14;;;;;;;15.90;6.30;;;7.00;99.90;;;;;;4187655;28;20293;-76
2024/02/12 01:32:16;;;;;;;17.80;6.27;;;7.00;99.90;;;;;;4180085;28;20224;-76
2024/02/12 01:34:17;;;;;;;15.00;7.23;;;7.00;99.90;;;;;;4189264;28;20203;-76
2024/02/12 01:36:21;;;;;;;17.30;7.10;;;7.00;99.90;;;;;;4190635;28;20263;-77
2024/02/12 01:38:26;;;;;;;17.83;7.57;;;7.00;99.90;;;;;;4187789;28;20213;-76
2024/02/12 01:40:28;;;;;;;13.80;5.80;;;7.00;99.90;;;;;;4184959;28;20201;-76
2024/02/12 01:42:31;;;;;;;13.23;5.87;;;7.00;99.90;;;;;;4179113;28;20681;-76
2024/02/12 01:44:33;;;;;;;11.77;5.60;;;6.90;99.90;;;;;;4178677;28;20210;-76
2024/02/12 01:46:35;;;;;;;12.13;5.20;;;6.90;99.90;;;;;;4185215;28;20298;-76
2024/02/12 01:48:37;;;;;;;10.80;5.30;;;6.90;99.90;;;;;;4178534;28;20229;-76
2024/02/12 01:50:38;;;;;;;14.57;6.23;;;6.90;99.90;;;;;;4181024;28;20608;-76
2024/02/12 01:52:41;;;;;;;13.70;5.33;;;6.90;99.90;;;;;;4183880;28;20217;-76
2024/02/12 01:54:44;;;;;;;11.10;5.07;;;6.90;99.90;;;;;;4181732;28;20206;-77
2024/02/12 01:56:47;;;;;;;11.07;5.00;;;6.90;99.90;;;;;;4186575;28;20234;-76
2024/02/12 01:58:49;;;;;;;14.53;5.37;;;6.90;99.90;;;;;;4186004;28;20245;-76
2024/02/12 02:00:54;;;;;;;10.90;5.27;;;6.90;99.90;;;;;;4184821;28;20362;-77
2024/02/12 02:02:56;;;;;;;11.27;5.47;;;6.90;99.90;;;;;;4179880;28;21555;-76
2024/02/12 02:05:04;;;;;;;12.03;4.90;;;6.90;99.90;;;;;;4182489;28;20202;-76
2024/02/12 02:07:06;;;;;;;11.70;5.00;;;6.90;99.90;;;;;;4184772;28;20717;-76
2024/02/12 02:09:08;;;;;;;21.77;10.07;;;6.80;99.90;;;;;;4183752;28;20205;-76
2024/02/12 02:11:12;;;;;;;20.20;12.13;;;6.80;99.90;;;;;;4184269;28;20234;-76
2024/02/12 02:13:15;;;;;;;23.40;12.07;;;6.80;99.90;;;;;;4191933;28;20651;-76
2024/02/12 02:15:18;;;;;;;23.20;12.73;;;6.80;99.90;;;;;;4182980;28;20260;-76
2024/02/12 02:17:20;;;;;;;25.43;13.70;;;6.80;99.90;;;;;;4184048;28;20226;-76
2024/02/12 02:19:23;;;;;;;20.63;11.80;;;6.80;99.90;;;;;;4180247;28;20225;-76
2024/02/12 02:21:25;;;;;;;22.67;11.17;;;6.80;99.90;;;;;;4184946;28;20744;-76
2024/02/12 02:23:28;;;;;;;21.50;10.40;;;6.80;99.90;;;;;;4182749;28;20619;-77
2024/02/12 02:25:31;;;;;;;23.23;9.00;;;6.80;99.90;;;;;;4187468;28;20464;-76
2024/02/12 02:27:34;;;;;;;16.07;7.80;;;6.80;99.90;;;;;;4184107;28;20215;-76
2024/02/12 02:29:37;;;;;;;12.87;5.90;;;6.80;99.90;;;;;;4184852;28;20649;-76
2024/02/12 02:31:39;;;;;;;16.00;6.27;;;6.80;99.90;;;;;;4185398;28;20257;-76
2024/02/12 02:33:41;;;;;;;9.97;5.23;;;6.80;99.90;;;;;;4181915;28;20447;-76
2024/02/12 02:35:44;;;;;;;14.93;5.73;;;6.80;99.90;;;;;;4185889;28;20206;-76
2024/02/12 02:37:45;;;;;;;9.87;5.30;;;6.80;99.90;;;;;;4187022;28;20217;-76
2024/02/12 02:39:47;;;;;;;14.90;5.37;;;6.80;99.90;;;;;;4186754;28;20234;-77
2024/02/12 02:41:51;;;;;;;14.90;4.77;;;6.80;99.90;;;;;;4191873;28;20709;-76
2024/02/12 02:43:53;;;;;;;12.47;4.77;;;6.80;99.90;;;;;;4189611;28;20218;-77
2024/02/12 02:45:55;;;;;;;13.07;4.53;;;6.80;99.90;;;;;;4186044;28;20455;-76
2024/02/12 02:47:56;;;;;;;9.87;4.20;;;6.80;99.90;;;;;;4181408;28;20318;-76
2024/02/12 02:49:58;;;;;;;11.67;4.90;;;6.80;99.90;;;;;;4183764;28;20187;-76
2024/02/12 02:52:01;;;;;;;10.90;4.67;;;6.80;99.90;;;;;;4188475;28;20227;-76
2024/02/12 02:54:03;;;;;;;12.83;5.50;;;6.80;99.90;;;;;;4184818;28;20286;-76
2024/02/12 02:56:05;;;;;;;13.33;4.83;;;6.80;99.90;;;;;;4191576;28;20288;-76
2024/02/12 02:58:09;;;;;;;9.73;4.70;;;6.80;99.90;;;;;;4187449;28;20289;-76
2024/02/12 03:00:10;;;;;;;9.37;4.13;;;6.80;99.90;;;;;;4189854;28;20351;-76
2024/02/12 03:02:12;;;;;;;10.47;5.07;;;6.80;99.90;;;;;;4188555;28;20289;-76
2024/02/12 03:04:14;;;;;;;10.47;4.67;;;6.80;99.90;;;;;;4189959;28;20210;-77
2024/02/12 03:06:16;;;;;;;11.80;4.90;;;6.80;99.90;;;;;;4181552;28;20297;-76
2024/02/12 03:08:18;;;;;;;12.87;5.40;;;6.80;99.90;;;;;;4183527;28;20237;-77
2024/02/12 03:10:20;;;;;;;14.07;5.00;;;6.80;99.90;;;;;;4189290;28;20199;-77
2024/02/12 03:12:22;;;;;;;9.90;5.07;;;6.80;99.90;;;;;;4190997;28;20219;-76
2024/02/12 03:14:25;;;;;;;12.73;5.43;;;6.90;99.90;;;;;;4181161;28;20967;-76
2024/02/12 03:16:27;;;;;;;13.03;6.30;;;6.80;99.90;;;;;;4191303;28;20211;-76
2024/02/12 03:18:29;;;;;;;14.23;5.73;;;6.80;99.90;;;;;;4182940;28;20207;-77
2024/02/12 03:20:31;;;;;;;13.83;5.40;;;6.80;99.90;;;;;;4186780;28;20313;-76
2024/02/12 03:22:33;;;;;;;9.53;4.60;;;6.90;99.90;;;;;;4190531;28;20203;-77
2024/02/12 03:24:36;;;;;;;11.57;4.80;;;6.80;99.90;;;;;;4186371;28;20213;-77
2024/02/12 03:26:38;;;;;;;11.27;4.97;;;6.80;99.90;;;;;;4188938;28;20207;-76
2024/02/12 03:28:40;;;;;;;10.23;5.67;;;6.80;99.90;;;;;;4188672;28;20235;-76
2024/02/12 03:30:43;;;;;;;14.97;6.07;;;6.90;99.90;;;;;;4185872;28;20198;-77
2024/02/12 03:32:45;;;;;;;17.57;5.63;;;6.90;99.90;;;;;;4181597;28;20207;-77
2024/02/12 03:34:47;;;;;;;12.00;6.00;;;6.90;99.90;;;;;;4192746;28;20302;-76
2024/02/12 03:36:48;;;;;;;12.23;5.90;;;6.90;99.90;;;;;;4191555;28;20211;-77
2024/02/12 03:38:49;;;;;;;11.63;5.50;;;6.90;99.90;;;;;;4189990;28;20606;-77
2024/02/12 03:40:53;;;;;;;13.90;5.43;;;6.90;99.90;;;;;;4187046;28;20249;-77
2024/02/12 03:42:55;;;;;;;18.40;6.13;;;6.90;99.90;;;;;;4188348;28;20204;-77
2024/02/12 03:44:57;;;;;;;15.87;5.50;;;6.90;99.90;;;;;;4186226;28;20288;-76
2024/02/12 03:47:00;;;;;;;10.70;5.53;;;6.90;99.90;;;;;;4187329;28;20205;-78
2024/02/12 04:00:52;;;;;;;11.30;4.73;;;6.90;99.90;;;;;;4183408;28;20218;-77
2024/02/12 04:02:58;;;;;;;10.27;5.47;;;6.90;99.90;;;;;;4191479;28;20631;-77
2024/02/12 04:05:00;;;;;;;8.77;4.67;;;6.90;99.90;;;;;;4182800;28;20210;-77
2024/02/12 04:07:02;;;;;;;13.60;4.90;;;6.90;99.90;;;;;;4186048;28;20233;-77
2024/02/12 04:09:04;;;;;;;15.03;5.40;;;6.90;99.90;;;;;;4190391;28;20290;-77
2024/02/12 04:11:08;;;;;;;16.00;5.53;;;6.90;99.90;;;;;;4185332;28;20709;-77
2024/02/12 04:13:10;;;;;;;9.60;4.73;;;7.00;99.90;;;;;;4189057;28;20703;-76
2024/02/12 04:15:13;;;;;;;10.30;4.90;;;6.90;99.90;;;;;;4189018;28;20583;-76
2024/02/12 04:17:15;;;;;;;14.87;5.33;;;6.90;99.90;;;;;;4187502;28;20199;-77
2024/02/12 04:19:18;;;;;;;12.03;5.03;;;6.90;99.90;;;;;;4182735;28;20226;-78
2024/02/12 04:21:22;;;;;;;17.83;5.93;;;6.90;99.90;;;;;;4188100;28;20229;-76
2024/02/12 04:23:24;;;;;;;9.97;4.83;;;7.00;99.90;;;;;;4186940;28;20222;-76
2024/02/12 04:25:26;;;;;;;15.00;4.80;;;6.90;99.90;;;;;;4189568;28;20214;-76
2024/02/12 04:27:28;;;;;;;12.70;5.10;;;6.90;99.90;;;;;;4186806;28;20214;-77
2024/02/12 04:29:30;;;;;;;9.30;5.20;;;6.90;99.90;;;;;;4183137;28;20452;-76
2024/02/12 04:31:35;;;;;;;10.30;4.70;;;6.90;99.90;;;;;;4186007;28;20316;-77
2024/02/12 04:33:37;;;;;;;9.03;5.07;;;7.00;99.90;;;;;;4183102;28;20728;-76
2024/02/12 04:35:41;;;;;;;12.13;4.73;;;7.00;99.90;;;;;;4185198;28;20653;-76
2024/02/12 04:37:45;;;;;;;10.60;4.10;;;7.00;99.90;;;;;;4186799;28;20577;-77
2024/02/12 04:39:48;;;;;;;10.90;4.57;;;7.00;99.90;;;;;;4186185;28;20215;-76
2024/02/12 04:41:51;;;;;;;9.60;4.27;;;7.00;99.90;;;;;;4182913;28;20264;-77
2024/02/12 04:43:52;;;;;;;11.83;4.77;;;6.90;99.90;;;;;;4186316;28;20206;-77
2024/02/12 04:45:55;;;;;;;9.83;4.57;;;7.00;99.90;;;;;;4184088;28;20197;-77
2024/02/12 04:47:57;;;;;;;9.60;4.47;;;7.00;99.90;;;;;;4185078;28;20207;-76
2024/02/12 04:49:58;;;;;;;9.17;4.10;;;7.10;99.90;;;;;;4188398;28;20206;-76
2024/02/12 04:52:02;;;;;;;8.53;4.33;;;7.00;99.90;;;;;;4184772;28;20306;-76
2024/02/12 04:54:05;;;;;;;10.23;3.97;;;7.00;99.90;;;;;;4187774;28;20210;-77
2024/02/12 04:56:06;;;;;;;8.17;4.00;;;7.00;99.90;;;;;;4185293;28;20238;-76
2024/02/12 04:58:08;;;;;;;6.13;3.63;;;7.00;99.90;;;;;;4180498;28;20264;-76
2024/02/12 05:00:11;;;;;;;8.53;4.03;;;7.00;99.90;;;;;;4184399;28;20265;-77
2024/02/12 05:02:13;;;;;;;9.63;4.30;;;7.00;99.90;;;;;;4185159;28;20743;-77
2024/02/12 05:04:16;;;;;;;7.43;3.93;;;7.00;99.90;;;;;;4184352;28;20229;-77
2024/02/12 05:06:21;;;;;;;7.03;3.97;;;7.00;99.90;;;;;;4183491;28;20582;-77
2024/02/12 05:08:23;;;;;;;9.87;4.20;;;7.00;99.90;;;;;;4182075;28;20219;-79
2024/02/12 05:10:25;;;;;;;6.03;3.80;;;7.00;99.90;;;;;;4184867;28;20202;-77
2024/02/12 05:12:29;;;;;;;9.20;4.00;;;7.00;99.90;;;;;;4185382;28;20253;-77
2024/02/12 05:14:32;;;;;;;10.97;3.97;;;7.00;99.90;;;;;;4187091;28;20566;-76
2024/02/12 05:16:35;;;;;;;8.87;4.00;;;7.00;99.90;;;;;;4184695;28;20239;-77
2024/02/12 05:23:12;;;;;;;10.00;4.63;;;7.00;99.90;;;;;;4143488;28;20585;-77
2024/02/12 05:25:16;;;;;;;7.07;4.00;;;7.00;99.90;;;;;;4185218;28;20207;-77
2024/02/12 05:27:18;;;;;;;6.63;3.90;;;7.00;99.90;;;;;;4182711;28;20203;-77
2024/02/12 05:29:22;;;;;;;7.23;3.70;;;7.00;99.90;;;;;;4183536;28;20226;-77
2024/02/12 05:31:24;;;;;;;8.00;4.07;;;6.90;99.90;;;;;;4184775;28;20737;-77
2024/02/12 05:33:26;;;;;;;9.07;4.00;;;6.90;99.90;;;;;;4185160;28;21078;-78
2024/02/12 05:35:28;;;;;;;11.87;4.10;;;6.90;99.90;;;;;;4183812;28;20224;-77
2024/02/12 05:37:30;;;;;;;7.87;4.03;;;6.90;99.90;;;;;;4185299;28;20207;-76
2024/02/12 05:39:33;;;;;;;6.87;4.17;;;7.00;99.90;;;;;;4181821;28;20199;-77
2024/02/12 05:41:36;;;;;;;10.27;3.60;;;6.90;99.90;;;;;;4187374;28;20233;-76
2024/02/12 05:43:37;;;;;;;11.47;4.07;;;6.90;99.90;;;;;;4201374;28;20205;-77
2024/02/12 05:45:40;;;;;;;8.90;4.20;;;6.90;99.90;;;;;;4183946;28;20670;-77
2024/02/12 05:47:42;;;;;;;7.97;4.20;;;6.90;99.90;;;;;;4183950;28;20723;-77
2024/02/12 05:49:44;;;;;;;10.63;3.87;;;6.90;99.90;;;;;;4183909;28;20712;-76
2024/02/12 05:51:46;;;;;;;9.00;3.90;;;6.90;99.90;;;;;;4183432;28;20279;-77
2024/02/12 05:53:47;;;;;;;10.53;4.33;;;6.90;99.90;;;;;;4187295;28;20610;-77
2024/02/12 05:55:49;;;;;;;10.13;4.33;;;6.90;99.90;;;;;;4187878;28;20212;-77
2024/02/12 05:57:52;;;;;;;8.27;4.20;;;6.90;99.90;;;;;;4184715;28;20692;-76
2024/02/12 05:59:54;;;;;;;9.07;4.17;;;6.90;99.90;;;;;;4184847;28;20282;-77
2024/02/12 06:01:57;;;;;;;7.80;4.00;;;6.90;99.90;;;;;;4185064;28;20599;-77
2024/02/12 06:03:59;;;;;;;8.67;4.07;;;6.90;99.90;;;;;;4184304;28;20857;-77
2024/02/12 06:06:02;;;;;;;7.50;3.70;;;6.90;99.90;;;;;;4179725;28;20638;-76
2024/02/12 06:08:07;;;;;;;6.70;3.83;;;6.90;99.90;;;;;;4184221;28;20221;-77
2024/02/12 06:10:09;;;;;;;8.87;3.87;;;6.90;99.90;;;;;;4181853;28;20735;-78
2024/02/12 06:12:11;;;;;;;8.37;4.20;;;6.90;99.90;;;;;;4183932;28;20730;-77
2024/02/12 06:14:15;;;;;;;8.47;3.80;;;6.90;99.90;;;;;;4181100;28;20640;-77
2024/02/12 06:16:16;;;;;;;12.67;4.57;;;6.80;99.90;;;;;;4186502;28;20203;-76
2024/02/12 06:18:18;;;;;;;9.17;4.30;;;6.90;99.90;;;;;;4188895;28;20205;-76
2024/02/12 06:20:21;;;;;;;10.60;4.50;;;6.80;99.90;;;;;;4189178;28;20209;-77
2024/02/12 06:22:23;;;;;;;6.33;3.50;;;6.80;99.90;;;;;;4184887;28;20257;-76
2024/02/12 06:24:25;;;;;;;7.63;4.10;;;6.80;99.90;;;;;;4188019;28;20233;-76
2024/02/12 06:26:25;;;;;;;6.60;3.40;;;6.80;99.90;;;;;;4188614;28;20236;-77
2024/02/12 06:28:27;;;;;;;7.70;3.73;;;6.80;99.90;;;;;;4188626;28;20199;-76
2024/02/12 06:30:30;;;;;;;7.13;3.90;;;6.80;99.90;;;;;;4187745;28;20301;-76
2024/02/12 06:32:33;;;;;;;16.60;4.23;;;6.80;99.90;;;;;;4190926;28;20202;-77
2024/02/12 06:34:35;;;;;;;8.90;4.10;;;6.80;99.90;;;;;;4194195;28;20206;-77
2024/02/12 06:36:36;;;;;;;8.17;4.00;;;6.80;99.90;;;;;;4189200;28;21600;-80
2024/02/12 06:38:39;;;;;;;9.60;4.40;;;6.80;99.90;;;;;;4191872;28;20202;-78
2024/02/12 06:40:41;;;;;;;6.47;3.50;;;6.80;99.90;;;;;;4186360;28;20225;-77
2024/02/12 06:42:43;;;;;;;10.10;3.80;;;6.80;99.90;;;;;;4189112;28;20738;-78
2024/02/12 06:44:45;;;;;;;9.93;4.00;;;6.80;99.90;;;;;;4190738;28;20203;-77
2024/02/12 06:46:48;;;;;;;7.07;3.77;;;6.80;99.90;;;;;;4189120;28;20202;-76
2024/02/12 06:48:50;;;;;;;9.07;4.10;;;6.80;99.90;;;;;;4187168;28;20203;-78
2024/02/12 06:50:51;;;;;;;10.27;4.40;;;6.80;99.90;;;;;;4190388;28;20221;-78
2024/02/12 06:52:54;;;;;;;8.70;3.87;;;6.80;99.90;;;;;;4188534;28;20207;-77
2024/02/12 06:54:55;;;;;;;6.90;3.53;;;6.80;99.90;;;;;;4192727;28;20244;-77
2024/02/12 06:56:59;;;;;;;7.57;3.80;;;6.80;99.90;;;;;;4188107;28;20229;-77
2024/02/12 06:59:01;;;;;;;5.77;3.50;;;6.80;99.90;;;;;;4186368;28;20238;-78
2024/02/12 07:01:04;;;;;;;9.27;3.73;;;6.80;99.90;;;;;;4184679;28;20237;-78
2024/02/12 07:03:07;;;;;;;6.40;3.83;;;6.80;99.90;;;;;;4187659;28;20198;-77
2024/02/12 07:05:12;;;;;;;10.23;4.17;;;6.80;99.90;;;;;;4188105;28;20226;-77
2024/02/12 07:07:14;;;;;;;9.47;4.17;;;6.80;99.90;;;;;;4188315;28;20273;-78
2024/02/12 07:09:16;;;;;;;10.50;4.03;;;6.80;99.90;;;;;;4183289;28;20234;-77
2024/02/12 07:11:18;;;;;;;7.93;4.03;;;6.80;99.90;;;;;;4185538;28;20440;-77
2024/02/12 07:13:21;;;;;;;7.87;4.20;;;6.80;99.90;;;;;;4187877;28;20214;-77
2024/02/12 07:15:23;;;;;;;10.27;4.50;;;6.80;99.90;;;;;;4191399;28;20786;-77
2024/02/12 07:17:23;;;;;;;8.53;4.77;;;6.80;99.90;;;;;;4180719;28;20227;-78
2024/02/12 07:19:27;;;;;;;9.03;4.57;;;6.80;99.90;;;;;;4190521;28;20213;-79
2024/02/12 07:21:29;;;;;;;10.63;4.60;;;6.80;99.90;;;;;;4192586;28;20340;-77
2024/02/12 07:23:30;;;;;;;9.43;4.90;;;6.80;99.90;;;;;;4184768;28;20230;-77
2024/02/12 07:25:33;;;;;;;10.93;5.07;;;6.90;99.90;;;;;;4186652;28;20217;-77
2024/02/12 07:27:34;;;;;;;8.93;5.10;;;6.80;99.90;;;;;;4184227;28;20196;-77
2024/02/12 07:29:36;;;;;;;12.80;5.20;;;6.80;99.90;;;;;;4186591;28;20289;-77
2024/02/12 07:31:40;;;;;;;12.43;5.30;;;6.80;99.90;;;;;;4182595;28;20216;-77
2024/02/12 07:33:40;;;;;;;13.20;5.63;;;6.80;99.90;;;;;;4188496;28;20205;-78
2024/02/12 07:35:44;;;;;;;9.63;5.63;;;6.90;99.90;;;;;;4189594;28;20244;-77
2024/02/12 07:37:49;;;;;;;12.73;6.50;;;6.80;99.90;;;;;;4184531;28;20256;-77
2024/02/12 07:39:51;;;;;;;13.93;6.40;;;6.90;99.90;;;;;;4186199;28;20577;-77
2024/02/12 07:41:52;;;;;;;16.30;7.33;;;7.00;99.90;;;;;;4184154;28;20308;-77
2024/02/12 07:43:54;;;;;;;15.37;7.83;;;6.90;99.90;;;;;;4188833;28;20236;-77
2024/02/12 07:45:56;;;;;;;17.97;7.70;;;6.90;99.90;;;;;;4182493;28;20278;-78
2024/02/12 07:47:58;;;;;;;18.80;8.47;;;6.90;99.90;;;;;;4190143;28;20201;-77
2024/02/12 07:50:00;;;;;;;22.60;8.73;;;6.90;99.90;;;;;;4182925;28;20205;-77
2024/02/12 07:52:04;;;;;;;19.13;8.53;;;7.00;99.90;;;;;;4185904;28;20241;-77
2024/02/12 07:54:06;;;;;;;19.03;7.67;;;6.90;99.90;;;;;;4181261;28;20204;-79
2024/02/12 07:56:08;;;;;;;15.47;7.30;;;7.00;99.90;;;;;;4178651;28;20214;-78
2024/02/12 07:58:10;;;;;;;15.30;7.13;;;7.00;99.90;;;;;;4185722;28;20245;-78
2024/02/12 08:00:14;;;;;;;19.80;6.93;;;7.10;99.90;;;;;;4185720;28;20212;-77
2024/02/12 08:02:16;;;;;;;17.10;7.20;;;7.10;99.90;;;;;;4187779;28;20837;-78
2024/02/12 08:04:19;;;;;;;14.07;6.10;;;7.00;99.90;;;;;;4187069;28;20792;-75
2024/02/12 08:06:21;;;;;;;13.07;6.30;;;7.10;99.90;;;;;;4183790;28;20202;-77
2024/02/12 08:08:24;;;;;;;12.70;5.93;;;7.10;99.90;;;;;;4188338;28;20627;-76
2024/02/12 08:10:25;;;;;;;12.70;6.23;;;7.20;99.90;;;;;;4187201;28;20213;-76
2024/02/12 08:12:27;;;;;;;10.43;5.87;;;7.20;99.90;;;;;;4187445;28;20773;-79
2024/02/12 08:14:29;;;;;;;11.43;6.30;;;7.20;99.90;;;;;;4185937;28;20209;-77
2024/02/12 08:16:33;;;;;;;16.23;6.43;;;7.20;99.90;;;;;;4185120;28;20637;-77
2024/02/12 08:18:36;;;;;;;16.57;6.17;;;7.30;99.90;;;;;;4187463;28;20209;-78
2024/02/12 08:20:37;;;;;;;15.03;6.83;;;7.30;99.90;;;;;;4186415;28;20242;-77
2024/02/12 08:22:39;;;;;;;12.33;5.53;;;7.30;99.90;;;;;;4188445;28;20838;-76
2024/02/12 08:24:43;;;;;;;13.57;5.93;;;7.30;99.90;;;;;;4186629;28;20210;-76
2024/02/12 08:26:45;;;;;;;10.80;5.40;;;7.30;99.90;;;;;;4189405;28;20203;-77
2024/02/12 08:28:46;;;;;;;8.40;5.47;;;7.40;99.90;;;;;;4187717;28;20214;-77
2024/02/12 08:30:48;;;;;;;9.23;5.83;;;7.40;99.90;;;;;;4187047;28;20281;-77
2024/02/12 08:32:50;;;;;;;10.53;5.93;;;7.40;99.90;;;;;;4185324;28;20294;-76
2024/02/12 08:34:52;;;;;;;10.23;5.83;;;7.50;99.90;;;;;;4187352;28;20202;-76
2024/02/12 08:36:54;;;;;;;10.30;5.43;;;7.50;99.90;;;;;;4184825;28;20210;-76
2024/02/12 08:38:56;;;;;;;13.73;5.73;;;7.40;99.90;;;;;;4185340;28;20232;-76
2024/02/12 08:41:00;;;;;;;10.23;5.70;;;7.50;99.90;;;;;;4187195;28;20224;-76
2024/02/12 08:43:04;;;;;;;7.63;5.03;;;7.50;99.90;;;;;;4185772;28;20209;-76
2024/02/12 08:45:06;;;;;;;10.03;5.20;;;7.50;99.90;;;;;;4185390;28;20212;-78
2024/02/12 08:47:07;;;;;;;10.10;5.30;;;7.50;99.90;;;;;;4183306;28;20204;-76
2024/02/12 08:49:09;;;;;;;12.00;5.10;;;7.60;99.90;;;;;;4188378;28;20621;-76
2024/02/12 08:51:15;;;;;;;10.50;5.17;;;7.60;99.90;;;;;;4184351;28;20229;-78
2024/02/12 08:53:17;;;;;;;11.53;5.40;;;7.60;99.90;;;;;;4189060;28;20214;-76
2024/02/12 08:55:19;;;;;;;11.07;5.23;;;7.60;99.90;;;;;;4184023;28;20293;-76
2024/02/12 08:57:22;;;;;;;10.83;5.30;;;7.70;99.90;;;;;;4184532;28;20277;-76
2024/02/12 08:59:25;;;;;;;10.57;4.97;;;7.70;99.90;;;;;;4184889;28;20238;-76
2024/02/12 09:01:27;;;;;;;8.40;5.37;;;7.60;99.90;;;;;;4182605;28;20340;-76
2024/02/12 09:03:32;;;;;;;8.87;5.33;;;7.70;99.90;;;;;;4184449;28;20204;-76
2024/02/12 09:05:34;;;;;;;10.97;5.40;;;7.70;99.90;;;;;;4185115;28;20294;-76
2024/02/12 09:07:35;;;;;;;9.43;4.90;;;7.70;99.90;;;;;;4183637;28;20212;-77
2024/02/12 09:09:37;;;;;;;9.03;5.20;;;7.70;99.90;;;;;;4184416;28;20196;-76
2024/02/12 09:11:39;;;;;;;10.27;4.87;;;7.70;99.90;;;;;;4182886;28;20235;-76
2024/02/12 09:13:43;;;;;;;11.97;5.70;;;7.70;99.90;;;;;;4185755;28;20641;-76
2024/02/12 09:15:45;;;;;;;12.03;6.30;;;7.70;99.90;;;;;;4186111;28;20299;-76
2024/02/12 09:17:47;;;;;;;9.97;5.13;;;7.70;99.90;;;;;;4184370;28;20200;-76
2024/02/12 09:19:49;;;;;;;13.47;5.97;;;7.80;99.90;;;;;;4186307;28;20620;-76
2024/02/12 09:21:51;;;;;;;11.07;5.73;;;7.80;99.90;;;;;;4183440;28;20305;-76
2024/02/12 09:23:53;;;;;;;11.33;6.60;;;7.80;99.90;;;;;;4187427;28;20205;-77
2024/02/12 09:25:55;;;;;;;8.87;5.23;;;7.80;99.90;;;;;;4182101;28;20324;-77
2024/02/12 09:27:58;;;;;;;9.30;5.50;;;7.90;99.90;;;;;;4185634;28;20668;-78
2024/02/12 09:30:01;;;;;;;12.47;6.33;;;7.90;99.90;;;;;;4187789;28;20662;-77
2024/02/12 09:32:03;;;;;;;11.90;6.10;;;8.00;99.90;;;;;;4186940;28;20761;-77
2024/02/12 09:34:05;;;;;;;11.00;5.80;;;8.10;99.90;;;;;;4178738;28;20635;-77
2024/02/12 09:36:08;;;;;;;11.20;6.80;;;8.10;99.90;;;;;;4183635;28;20212;-78
2024/02/12 09:38:10;;;;;;;16.33;7.27;;;8.10;99.90;;;;;;4187121;28;20285;-78
2024/02/12 09:40:15;;;;;;;13.93;7.17;;;8.20;99.90;;;;;;4188814;28;20699;-78
2024/02/12 09:42:18;;;;;;;13.17;6.27;;;8.20;99.90;;;;;;4185786;28;20225;-78
2024/02/12 09:44:23;;;;;;;12.27;6.80;;;8.20;99.90;;;;;;4182492;28;20595;-78
2024/02/12 09:46:29;;;;;;;15.17;7.00;;;8.20;99.90;;;;;;4187035;28;20209;-78
2024/02/12 09:48:31;;;;;;;12.03;6.47;;;8.30;99.90;;;;;;4184850;28;20288;-78
2024/02/12 09:50:33;;;;;;;13.10;7.50;;;8.40;99.90;;;;;;4188376;28;20631;-78
2024/02/12 09:52:36;;;;;;;10.47;6.20;;;8.40;99.90;;;;;;4184405;28;20666;-78
2024/02/12 09:54:40;;;;;;;13.90;5.93;;;8.40;99.90;;;;;;4180904;28;20296;-78
2024/02/12 09:56:47;;;;;;;15.07;6.13;;;8.50;99.90;;;;;;4186013;28;20566;-78
2024/02/12 09:58:52;;;;;;;10.87;6.00;;;8.50;99.90;;;;;;4183826;28;20200;-78
2024/02/12 10:00:54;;;;;;;8.97;5.50;;;8.50;99.90;;;;;;4182421;28;20229;-77
2024/02/12 10:02:56;;;;;;;10.70;5.70;;;8.60;99.90;;;;;;4186189;28;20310;-78
2024/02/12 10:04:58;;;;;;;7.47;5.00;;;8.60;99.90;;;;;;4184714;28;20234;-78
2024/02/12 10:07:02;;;;;;;9.80;5.27;;;8.70;99.90;;;;;;4189975;28;20210;-78
2024/02/12 10:09:06;;;;;;;11.70;5.87;;;8.70;99.90;;;;;;4182916;28;20205;-78
2024/02/12 10:11:08;;;;;;;9.50;5.43;;;8.70;99.90;;;;;;4179127;28;20235;-77
2024/02/12 10:13:09;;;;;;;9.23;5.03;;;8.80;99.90;;;;;;4182420;28;20583;-78
2024/02/12 10:15:13;;;;;;;9.27;4.83;;;8.90;99.90;;;;;;4183185;28;20268;-78
2024/02/12 10:17:16;;;;;;;9.53;5.23;;;8.90;99.90;;;;;;4179857;28;20232;-78
2024/02/12 10:19:20;;;;;;;9.73;5.10;;;8.90;99.90;;;;;;4183430;28;20637;-78
2024/02/12 10:21:23;;;;;;;12.27;5.53;;;8.90;99.90;;;;;;4182076;28;20280;-78
2024/02/12 10:23:25;;;;;;;10.67;5.77;;;9.00;99.90;;;;;;4186204;28;20216;-78
2024/02/12 10:25:28;;;;;;;9.50;5.40;;;9.10;99.90;;;;;;4185106;28;20238;-77
2024/02/12 10:27:30;;;;;;;11.83;5.53;;;9.10;99.90;;;;;;4188254;28;20234;-78
2024/02/12 10:29:32;;;;;;;8.93;5.47;;;9.20;99.90;;;;;;4182592;28;20255;-78
2024/02/12 10:31:34;;;;;;;8.80;4.30;;;9.20;99.90;;;;;;4185620;28;20232;-78
2024/02/12 10:33:38;;;;;;;7.73;3.90;;;9.30;99.90;;;;;;4185873;28;20290;-80
2024/02/12 10:35:43;;;;;;;8.40;3.33;;;9.30;99.90;;;;;;4186391;28;20248;-77
2024/02/12 10:37:48;;;;;;;7.73;3.80;;;9.30;99.90;;;;;;4184318;28;20296;-78
2024/02/12 10:39:51;;;;;;;6.40;3.40;;;9.30;99.90;;;;;;4181941;28;20250;-78
2024/02/12 10:41:57;;;;;;;9.27;3.80;;;9.30;99.90;;;;;;4181298;28;20224;-77
2024/02/12 10:44:00;;;;;;;9.83;3.30;;;9.30;99.90;;;;;;4184011;28;20204;-77
2024/02/12 10:46:03;;;;;;;5.33;3.10;;;9.30;99.90;;;;;;4183683;28;20260;-77
2024/02/12 10:48:08;;;;;;;5.90;3.40;;;9.20;99.90;;;;;;4182928;28;20225;-84
2024/02/12 10:50:13;;;;;;;7.53;3.30;;;9.20;99.90;;;;;;4185496;28;20279;-83
2024/02/12 10:52:17;;;;;;;6.63;3.30;;;9.10;99.90;;;;;;4184509;28;20584;-77
2024/02/12 10:54:19;;;;;;;5.33;3.50;;;9.10;99.90;;;;;;4183412;28;20597;-82
2024/02/12 10:56:22;;;;;;;6.63;3.90;;;9.30;99.90;;;;;;4185426;28;20847;-81